Weeki Wachee, Florida
Current Conditions -  °F | °C
As of 1:53 AM on Friday 28 Nov 2014 (Local Time) from KBKV Reporting Station
Clear Clear  
Wind Chill: 40°   Ceiling: Unl
Heat Index: 44°   Visibility: 10mi
Dew Point: 35°   Wind: 7mph
Humidity: 71%   Direction: 360°N
Pressure: 30.31"   Gusts: NA
Location:  28.4982°N, 82.633°W
Report Text: KBKV 280653Z AUTO 36006KT 10SM CLR 07/02 A3031 RMK AO2 SLP263 T00670017
Loading
Personal Weather Stations






























Interactive Weather Map New forecast layout! Learn more

10-Day Weather Forecast

Advertisements
Track Severe Weather on mobile